createdAt,value
2018-07-17T00:00:26.403Z,20.27
2018-07-17T00:02:56.518Z,20.24
2018-07-17T00:05:26.154Z,20.26
2018-07-17T00:07:56.060Z,20.34
2018-07-17T00:10:26.557Z,20.25
2018-07-17T00:12:56.284Z,20.18
2018-07-17T00:15:26.025Z,20.02
2018-07-17T00:17:55.970Z,19.97
2018-07-17T00:20:25.624Z,19.93
2018-07-17T00:22:55.271Z,20.23
2018-07-17T00:25:24.928Z,20.22
2018-07-17T00:27:54.634Z,20.25
2018-07-17T00:30:24.270Z,20.30
2018-07-17T00:32:54.162Z,20.13
2018-07-17T00:35:23.791Z,20.06
2018-07-17T00:37:53.405Z,20.15
2018-07-17T00:40:23.515Z,20.07
2018-07-17T00:42:53.923Z,19.99
2018-07-17T00:45:23.596Z,20.19
2018-07-17T00:47:53.456Z,19.84
2018-07-17T00:50:23.366Z,19.69
2018-07-17T00:52:53.744Z,19.61
2018-07-17T00:55:23.414Z,19.52
2018-07-17T00:57:53.228Z,19.57
2018-07-17T01:00:26.996Z,19.56
2018-07-17T01:03:01.950Z,19.73
2018-07-17T01:05:37.283Z,19.48
2018-07-17T01:08:12.033Z,19.40
2018-07-17T01:10:46.759Z,19.32
2018-07-17T01:13:23.530Z,19.27
2018-07-17T01:15:53.613Z,19.18
2018-07-17T01:18:23.516Z,19.09
2018-07-17T01:20:53.192Z,19.07
2018-07-17T01:23:23.184Z,19.37
2018-07-17T01:25:52.813Z,19.29
2018-07-17T01:28:22.602Z,19.01
2018-07-17T01:30:52.235Z,18.91
2018-07-17T01:33:22.114Z,18.90
2018-07-17T01:35:51.788Z,19.07
2018-07-17T01:38:21.525Z,19.33
2018-07-17T01:40:51.124Z,19.05
2018-07-17T01:43:20.783Z,19.00
2018-07-17T01:45:50.936Z,19.13
2018-07-17T01:48:21.312Z,19.08
2018-07-17T01:50:51.142Z,18.72
2018-07-17T01:53:20.813Z,18.63
2018-07-17T01:55:50.407Z,18.52
2018-07-17T01:58:20.385Z,18.58
2018-07-17T02:00:50.729Z,18.43
2018-07-17T02:03:20.597Z,18.36
2018-07-17T02:05:50.754Z,18.28
2018-07-17T02:08:20.413Z,18.27
2018-07-17T02:10:50.007Z,18.50
2018-07-17T02:13:19.580Z,18.87
2018-07-17T02:15:49.599Z,18.72
2018-07-17T02:18:19.989Z,18.75
2018-07-17T02:20:49.620Z,18.48
2018-07-17T02:23:19.921Z,18.26
2018-07-17T02:25:49.600Z,18.16
2018-07-17T02:28:19.177Z,18.04
2018-07-17T02:30:48.787Z,17.98
2018-07-17T02:33:18.365Z,18.02
2018-07-17T02:35:47.997Z,18.01
2018-07-17T02:38:17.622Z,17.95
2018-07-17T02:40:47.362Z,17.98
2018-07-17T02:43:16.966Z,18.07
2018-07-17T02:45:46.672Z,17.92
2018-07-17T02:48:16.434Z,17.81
2018-07-17T02:50:46.650Z,17.70
2018-07-17T02:53:16.948Z,17.76
2018-07-17T02:55:46.538Z,17.77
2018-07-17T02:58:15.892Z,17.68
2018-07-17T03:00:45.732Z,17.71
2018-07-17T03:03:15.566Z,17.85
2018-07-17T03:05:51.971Z,17.88
2018-07-17T03:08:21.688Z,17.72
2018-07-17T03:10:51.391Z,17.61
2018-07-17T03:13:21.084Z,17.54
2018-07-17T03:15:50.711Z,17.46
2018-07-17T03:18:20.934Z,17.40
2018-07-17T03:20:50.759Z,17.41
2018-07-17T03:23:20.395Z,17.61
2018-07-17T03:25:50.267Z,17.51
2018-07-17T03:28:20.533Z,17.44
2018-07-17T03:30:50.945Z,17.46
2018-07-17T03:33:20.652Z,17.45
2018-07-17T03:35:51.227Z,17.48
2018-07-17T03:38:21.074Z,17.51
2018-07-17T03:40:51.448Z,17.52
2018-07-17T03:43:21.226Z,17.63
2018-07-17T03:45:51.161Z,17.60
2018-07-17T03:48:20.902Z,17.64
2018-07-17T03:50:51.272Z,17.67
2018-07-17T03:53:20.998Z,17.68
2018-07-17T03:55:50.711Z,17.75
2018-07-17T03:58:20.942Z,17.85
2018-07-17T04:00:50.926Z,17.92
2018-07-17T04:03:20.945Z,17.98
2018-07-17T04:05:50.684Z,18.04
2018-07-17T04:08:20.495Z,18.16
2018-07-17T04:10:50.217Z,18.74
2018-07-17T04:13:20.058Z,18.95
2018-07-17T04:15:49.774Z,19.99
2018-07-17T04:18:20.180Z,20.04
2018-07-17T04:20:49.963Z,19.94
2018-07-17T04:23:19.757Z,19.58
2018-07-17T04:25:50.229Z,21.36
2018-07-17T04:28:23.128Z,23.48
2018-07-17T04:30:52.913Z,26.19
2018-07-17T04:33:22.761Z,26.74
2018-07-17T04:35:52.332Z,26.38
2018-07-17T04:38:22.319Z,24.43
2018-07-17T04:40:52.115Z,25.31
2018-07-17T04:43:21.971Z,27.80
2018-07-17T04:45:52.417Z,28.91
2018-07-17T04:48:22.147Z,28.79
2018-07-17T04:50:51.500Z,29.63
2018-07-17T04:53:21.516Z,29.61
2018-07-17T04:55:51.178Z,30.84
2018-07-17T04:58:21.234Z,29.81
2018-07-17T05:00:51.012Z,29.17
2018-07-17T05:03:21.041Z,29.72
2018-07-17T05:05:50.893Z,31.35
2018-07-17T05:08:20.915Z,32.40
2018-07-17T05:10:50.574Z,31.21
2018-07-17T05:13:20.133Z,31.38
2018-07-17T05:15:50.367Z,30.46
2018-07-17T05:18:20.332Z,30.19
2018-07-17T05:20:50.069Z,30.17
2018-07-17T05:23:20.052Z,27.67
2018-07-17T05:25:49.817Z,26.98
2018-07-17T05:28:19.680Z,26.99
2018-07-17T05:30:49.719Z,27.24
2018-07-17T05:33:19.455Z,27.16
2018-07-17T05:35:49.674Z,28.24
2018-07-17T05:38:19.555Z,28.44
2018-07-17T05:40:49.213Z,29.21
2018-07-17T05:43:19.159Z,31.04
2018-07-17T05:45:49.561Z,32.43
2018-07-17T05:48:19.244Z,32.10
2018-07-17T05:50:49.016Z,31.43
2018-07-17T05:53:19.075Z,30.22
2018-07-17T05:55:49.303Z,31.26
2018-07-17T05:58:19.718Z,30.77
2018-07-17T06:00:49.626Z,31.04
2018-07-17T06:03:19.418Z,31.19
2018-07-17T06:05:49.059Z,33.13
2018-07-17T06:08:23.378Z,31.73
2018-07-17T06:10:53.304Z,31.24
2018-07-17T06:13:23.622Z,31.45
2018-07-17T06:15:54.012Z,32.11
2018-07-17T06:18:23.849Z,32.95
2018-07-17T06:20:53.611Z,32.12
2018-07-17T06:23:23.352Z,32.88
2018-07-17T06:25:53.717Z,32.81
2018-07-17T06:28:23.530Z,33.41
2018-07-17T06:30:53.176Z,33.52
2018-07-17T06:33:23.017Z,35.59
2018-07-17T06:35:52.670Z,37.34
2018-07-17T06:38:22.322Z,37.72
2018-07-17T06:40:51.724Z,35.48
2018-07-17T06:43:21.653Z,35.33
2018-07-17T06:45:51.910Z,35.21
2018-07-17T06:48:21.735Z,36.50
2018-07-17T06:50:51.490Z,35.98
2018-07-17T06:53:21.188Z,36.18
2018-07-17T06:55:51.028Z,35.96
2018-07-17T06:58:20.814Z,34.33
2018-07-17T07:00:50.394Z,36.09
2018-07-17T07:03:20.175Z,36.19
2018-07-17T07:05:49.889Z,34.48
2018-07-17T07:08:19.937Z,35.22
2018-07-17T07:10:49.775Z,34.24
2018-07-17T07:13:19.500Z,35.32
2018-07-17T07:15:49.160Z,34.92
2018-07-17T07:18:18.854Z,36.02
2018-07-17T07:20:48.528Z,34.97
2018-07-17T07:23:18.232Z,35.20
2018-07-17T07:25:47.900Z,34.78
2018-07-17T07:28:17.654Z,34.89
2018-07-17T07:30:47.329Z,34.59
2018-07-17T07:33:17.081Z,34.59
2018-07-17T07:35:46.414Z,35.60
2018-07-17T07:38:16.233Z,36.54
2018-07-17T07:40:46.282Z,35.47
2018-07-17T07:43:16.024Z,33.74
2018-07-17T07:45:45.773Z,34.88
2018-07-17T07:48:15.433Z,36.00
2018-07-17T07:50:45.262Z,35.10
2018-07-17T07:53:14.910Z,34.93
2018-07-17T07:55:44.684Z,34.83
2018-07-17T07:58:14.308Z,31.59
2018-07-17T08:00:44.831Z,35.94
2018-07-17T08:03:14.468Z,34.01
2018-07-17T08:05:44.152Z,32.01
2018-07-17T08:08:13.747Z,31.58
2018-07-17T08:10:43.562Z,33.58
2018-07-17T08:13:13.886Z,33.86
2018-07-17T08:15:43.702Z,33.84
2018-07-17T08:18:13.444Z,32.35
2018-07-17T08:20:43.065Z,31.95
2018-07-17T08:23:12.764Z,32.38
2018-07-17T08:25:42.474Z,34.49
2018-07-17T08:28:12.268Z,32.36
2018-07-17T08:30:42.035Z,30.88
2018-07-17T08:33:11.790Z,34.00
2018-07-17T08:35:41.562Z,32.24
2018-07-17T08:38:16.793Z,31.69
2018-07-17T08:40:46.359Z,30.79
2018-07-17T08:43:16.758Z,30.57
2018-07-17T08:45:46.313Z,30.30
2018-07-17T08:48:16.051Z,31.90
2018-07-17T08:50:46.852Z,31.46
2018-07-17T08:53:16.635Z,33.27
2018-07-17T08:55:46.450Z,32.00
2018-07-17T08:58:16.140Z,31.13
2018-07-17T09:00:46.552Z,31.00
2018-07-17T09:03:16.292Z,30.75
2018-07-17T09:05:45.996Z,31.59
2018-07-17T09:08:15.788Z,31.26
2018-07-17T09:10:45.577Z,30.59
2018-07-17T09:13:15.323Z,30.00
2018-07-17T09:15:45.026Z,29.87
2018-07-17T09:18:14.737Z,32.14
2018-07-17T09:20:44.388Z,33.25
2018-07-17T09:23:14.251Z,31.74
2018-07-17T09:25:43.968Z,30.08
2018-07-17T09:28:13.701Z,32.06
2018-07-17T09:30:48.617Z,31.17
2018-07-17T09:33:19.055Z,30.37
2018-07-17T09:35:48.733Z,31.12
2018-07-17T09:38:18.316Z,30.36
2018-07-17T09:40:47.932Z,30.50
2018-07-17T09:43:17.635Z,30.17
2018-07-17T09:45:47.278Z,30.42
2018-07-17T09:48:17.034Z,30.21
2018-07-17T09:50:46.807Z,31.12
2018-07-17T09:53:16.691Z,30.92
2018-07-17T09:55:46.909Z,29.87
2018-07-17T09:58:16.685Z,30.64
2018-07-17T10:00:52.177Z,32.68
2018-07-17T10:03:21.731Z,31.41
2018-07-17T10:05:51.169Z,32.07
2018-07-17T10:08:21.569Z,31.36
2018-07-17T10:10:51.678Z,30.97
2018-07-17T10:13:22.055Z,30.57
2018-07-17T10:15:52.494Z,31.14
2018-07-17T10:18:22.285Z,30.25
2018-07-17T10:20:51.980Z,31.82
2018-07-17T10:23:21.723Z,31.43
2018-07-17T10:25:51.600Z,29.74
2018-07-17T10:28:21.938Z,29.55
2018-07-17T10:30:51.586Z,30.03
2018-07-17T10:33:21.453Z,31.15
2018-07-17T10:35:51.106Z,30.04
2018-07-17T10:38:20.929Z,29.23
2018-07-17T10:40:51.352Z,29.36
2018-07-17T10:43:21.313Z,31.69
2018-07-17T10:45:51.065Z,30.79
2018-07-17T10:48:20.858Z,30.12
2018-07-17T10:50:50.598Z,30.58
2018-07-17T10:53:20.240Z,31.40
2018-07-17T10:55:50.331Z,31.28
2018-07-17T10:58:20.124Z,30.01
2018-07-17T11:00:49.933Z,31.28
2018-07-17T11:03:20.274Z,31.56
2018-07-17T11:05:50.268Z,30.57
2018-07-17T11:08:20.634Z,30.95
2018-07-17T11:10:50.626Z,32.45
2018-07-17T11:13:20.366Z,32.04
2018-07-17T11:15:50.578Z,30.13
2018-07-17T11:18:20.386Z,29.87
2018-07-17T11:20:50.408Z,28.72
2018-07-17T11:23:21.094Z,29.19
2018-07-17T11:25:51.236Z,29.05
2018-07-17T11:28:20.973Z,29.14
2018-07-17T11:30:51.341Z,28.84
2018-07-17T11:33:21.475Z,29.14
2018-07-17T11:35:51.657Z,28.99
2018-07-17T11:38:22.088Z,29.60
2018-07-17T11:40:52.060Z,29.00
2018-07-17T11:43:21.782Z,29.49
2018-07-17T11:45:51.733Z,29.23
2018-07-17T11:48:21.503Z,29.04
2018-07-17T11:50:51.754Z,29.13
2018-07-17T11:53:21.875Z,29.53
2018-07-17T11:55:51.954Z,28.91
2018-07-17T11:58:21.778Z,28.74
2018-07-17T12:00:51.660Z,28.78
2018-07-17T12:03:21.346Z,29.38
2018-07-17T12:05:52.568Z,29.41
2018-07-17T12:08:22.180Z,29.41
2018-07-17T12:10:52.022Z,29.29
2018-07-17T12:13:22.478Z,29.23
2018-07-17T12:15:52.193Z,29.00
2018-07-17T12:18:21.879Z,29.75
2018-07-17T12:20:51.516Z,29.49
2018-07-17T12:23:21.469Z,29.82
2018-07-17T12:25:51.130Z,29.44
2018-07-17T12:28:20.790Z,29.55
2018-07-17T12:30:50.453Z,30.43
2018-07-17T12:33:20.065Z,30.05
2018-07-17T12:35:49.815Z,30.19
2018-07-17T12:38:19.716Z,29.81
2018-07-17T12:40:49.400Z,30.14
2018-07-17T12:43:19.168Z,30.27
2018-07-17T12:45:48.817Z,29.99
2018-07-17T12:48:18.435Z,29.83
2018-07-17T12:50:48.219Z,30.04
2018-07-17T12:53:17.935Z,30.15
2018-07-17T12:55:47.595Z,30.02
2018-07-17T12:58:17.303Z,30.09
2018-07-17T13:00:47.586Z,29.99
2018-07-17T13:03:17.237Z,30.35
2018-07-17T13:05:46.847Z,30.09
2018-07-17T13:08:17.314Z,30.42
2018-07-17T13:10:47.050Z,29.35
2018-07-17T13:13:16.729Z,29.75
2018-07-17T13:15:46.653Z,29.63
2018-07-17T13:18:16.523Z,29.68
2018-07-17T13:20:46.276Z,29.14
2018-07-17T13:23:16.084Z,29.46
2018-07-17T13:25:45.744Z,29.46
2018-07-17T13:28:16.066Z,29.49
2018-07-17T13:30:45.721Z,29.54
2018-07-17T13:33:15.363Z,29.99
2018-07-17T13:35:45.612Z,30.04
2018-07-17T13:38:15.430Z,29.50
2018-07-17T13:40:45.137Z,29.57
2018-07-17T13:43:14.850Z,29.43
2018-07-17T13:45:44.535Z,29.58
2018-07-17T13:48:14.298Z,29.51
2018-07-17T13:50:44.030Z,29.88
2018-07-17T13:53:13.889Z,30.12
2018-07-17T13:55:43.701Z,30.39
2018-07-17T13:58:13.335Z,30.22
2018-07-17T14:00:43.710Z,30.89
2018-07-17T14:03:13.707Z,30.20
2018-07-17T14:05:44.215Z,29.84
2018-07-17T14:08:15.317Z,29.55
2018-07-17T14:10:45.929Z,29.57
2018-07-17T14:13:15.660Z,29.82
2018-07-17T14:15:45.390Z,29.54
2018-07-17T14:18:15.075Z,29.55
2018-07-17T14:20:45.217Z,29.63
2018-07-17T14:23:15.231Z,29.85
2018-07-17T14:25:45.627Z,29.34
2018-07-17T14:28:15.497Z,29.34
2018-07-17T14:30:46.686Z,29.38
2018-07-17T14:33:16.695Z,29.51
2018-07-17T14:35:46.446Z,29.84
2018-07-17T14:38:16.209Z,30.59
2018-07-17T14:40:46.033Z,30.31
2018-07-17T14:43:15.645Z,30.30
2018-07-17T14:45:46.247Z,29.56
2018-07-17T14:48:16.051Z,30.26
2018-07-17T14:50:45.899Z,29.82
2018-07-17T14:53:15.876Z,29.43
2018-07-17T14:55:45.494Z,29.66
2018-07-17T14:58:15.245Z,30.18
2018-07-17T15:00:44.937Z,30.33
2018-07-17T15:03:14.683Z,30.16
2018-07-17T15:05:44.308Z,30.11
2018-07-17T15:08:14.011Z,30.66
2018-07-17T15:10:44.292Z,30.28
2018-07-17T15:13:13.986Z,29.65
2018-07-17T15:15:43.868Z,29.85
2018-07-17T15:18:13.778Z,30.21
2018-07-17T15:20:43.390Z,29.68
2018-07-17T15:23:13.217Z,30.06
2018-07-17T15:25:42.832Z,29.25
2018-07-17T15:28:12.818Z,29.20
2018-07-17T15:30:42.516Z,29.35
2018-07-17T15:33:12.715Z,29.03
2018-07-17T15:35:42.441Z,29.15
2018-07-17T15:38:12.610Z,29.45
2018-07-17T15:40:42.847Z,29.27
2018-07-17T15:43:12.848Z,29.66
2018-07-17T15:45:43.245Z,28.75
2018-07-17T15:48:13.286Z,28.68
2018-07-17T15:50:42.956Z,28.85
2018-07-17T15:53:12.649Z,28.69
2018-07-17T15:55:42.356Z,28.99
2018-07-17T15:58:13.372Z,28.87
2018-07-17T16:00:43.027Z,28.73
2018-07-17T16:03:13.505Z,28.90
2018-07-17T16:05:43.773Z,29.06
2018-07-17T16:08:13.806Z,29.49
2018-07-17T16:10:44.070Z,29.27
2018-07-17T16:13:14.232Z,29.43
2018-07-17T16:15:43.911Z,29.97
2018-07-17T16:18:14.235Z,29.24
2018-07-17T16:20:44.642Z,29.37
2018-07-17T16:23:15.468Z,29.43
2018-07-17T16:25:45.206Z,29.43
2018-07-17T16:28:15.207Z,29.37
2018-07-17T16:30:44.954Z,29.16
2018-07-17T16:33:14.903Z,29.02
2018-07-17T16:35:44.642Z,29.52
2018-07-17T16:38:14.475Z,29.68
2018-07-17T16:40:44.119Z,29.07
2018-07-17T16:43:13.945Z,29.16
2018-07-17T16:45:43.555Z,29.05
2018-07-17T16:48:13.529Z,29.51
2018-07-17T16:50:43.510Z,29.21
2018-07-17T16:53:13.211Z,29.48
2018-07-17T16:55:42.957Z,29.24
2018-07-17T16:58:12.687Z,28.99
2018-07-17T17:00:42.391Z,28.85
2018-07-17T17:03:12.093Z,28.73
2018-07-17T17:05:41.788Z,28.55
2018-07-17T17:08:12.028Z,28.64
2018-07-17T17:10:41.713Z,28.72
2018-07-17T17:13:12.264Z,28.77
2018-07-17T17:15:42.295Z,28.62
2018-07-17T17:18:11.955Z,28.53
2018-07-17T17:20:41.719Z,28.64
2018-07-17T17:23:11.677Z,28.56
2018-07-17T17:25:41.313Z,28.49
2018-07-17T17:28:11.021Z,28.46
2018-07-17T17:30:40.829Z,28.40
2018-07-17T17:33:11.054Z,28.34
2018-07-17T17:35:40.851Z,28.38
2018-07-17T17:38:13.547Z,28.42
2018-07-17T17:40:43.647Z,28.30
2018-07-17T17:43:13.370Z,28.30
2018-07-17T17:45:43.187Z,28.29
2018-07-17T17:48:13.336Z,28.29
2018-07-17T17:50:42.991Z,28.05
2018-07-17T17:53:12.796Z,27.98
2018-07-17T17:55:42.515Z,27.99
2018-07-17T17:58:12.260Z,27.98
2018-07-17T18:00:42.174Z,27.91
2018-07-17T18:03:11.904Z,27.82
2018-07-17T18:05:42.273Z,27.81
2018-07-17T18:08:12.268Z,27.76
2018-07-17T18:10:42.234Z,27.67
2018-07-17T18:13:12.118Z,27.60
2018-07-17T18:15:42.121Z,27.48
2018-07-17T18:18:11.961Z,27.41
2018-07-17T18:20:41.601Z,27.33
2018-07-17T18:23:11.230Z,27.21
2018-07-17T18:25:41.443Z,27.12
2018-07-17T18:28:11.346Z,27.03
2018-07-17T18:30:41.636Z,27.00
2018-07-17T18:33:11.956Z,27.13
2018-07-17T18:35:42.167Z,26.86
2018-07-17T18:38:12.141Z,26.86
2018-07-17T18:40:42.005Z,26.82
2018-07-17T18:43:11.753Z,26.77
2018-07-17T18:45:41.552Z,26.63
2018-07-17T18:48:11.323Z,26.58
2018-07-17T18:50:45.118Z,26.68
2018-07-17T18:53:14.857Z,26.62
2018-07-17T18:55:44.686Z,26.42
2018-07-17T18:58:14.477Z,26.35
2018-07-17T19:00:44.184Z,26.32
2018-07-17T19:03:14.161Z,26.17
2018-07-17T19:05:43.956Z,26.09
2018-07-17T19:08:13.656Z,26.01
2018-07-17T19:10:43.782Z,25.93
2018-07-17T19:13:13.513Z,25.98
2018-07-17T19:15:43.386Z,25.85
2018-07-17T19:18:13.102Z,25.70
2018-07-17T19:20:42.886Z,25.69
2018-07-17T19:23:12.689Z,25.64
2018-07-17T19:25:42.424Z,25.63
2018-07-17T19:28:12.096Z,25.51
2018-07-17T19:30:41.952Z,25.52
2018-07-17T19:33:11.791Z,25.50
2018-07-17T19:35:41.862Z,25.43
2018-07-17T19:38:11.696Z,25.43
2018-07-17T19:40:41.578Z,25.32
2018-07-17T19:43:11.374Z,25.30
2018-07-17T19:45:41.094Z,25.25
2018-07-17T19:48:11.055Z,25.10
2018-07-17T19:50:40.816Z,24.85
2018-07-17T19:53:10.488Z,24.65
2018-07-17T19:55:40.192Z,24.60
2018-07-17T19:58:10.143Z,24.44
2018-07-17T20:00:40.084Z,24.40
2018-07-17T20:03:09.831Z,24.38
2018-07-17T20:05:39.416Z,24.27
2018-07-17T20:08:09.323Z,24.18
2018-07-17T20:10:39.103Z,24.09
2018-07-17T20:13:08.767Z,24.24
2018-07-17T20:15:38.493Z,23.99
2018-07-17T20:18:08.328Z,23.84
2018-07-17T20:20:38.464Z,23.84
2018-07-17T20:23:08.141Z,23.65
2018-07-17T20:25:37.963Z,23.73
2018-07-17T20:28:08.124Z,23.57
2018-07-17T20:30:37.926Z,23.50
2018-07-17T20:33:08.313Z,23.35
2018-07-17T20:35:38.506Z,23.28
2018-07-17T20:38:09.367Z,23.19
2018-07-17T20:40:38.873Z,23.32
2018-07-17T20:43:08.516Z,23.08
2018-07-17T20:45:38.346Z,23.10
2018-07-17T20:48:08.400Z,23.07
2018-07-17T20:50:37.840Z,23.01
2018-07-17T20:53:07.734Z,22.88
2018-07-17T20:55:38.537Z,22.81
2018-07-17T20:58:08.735Z,22.76
2018-07-17T21:00:38.436Z,22.71
2018-07-17T21:03:08.550Z,22.66
2018-07-17T21:05:38.743Z,22.61
2018-07-17T21:08:09.236Z,22.64
2018-07-17T21:10:39.565Z,22.60
2018-07-17T21:13:09.919Z,22.53
2018-07-17T21:15:39.961Z,22.52
2018-07-17T21:18:09.723Z,22.56
2018-07-17T21:20:40.486Z,22.36
2018-07-17T21:23:10.142Z,22.42
2018-07-17T21:25:40.020Z,22.40
2018-07-17T21:28:09.578Z,22.29
2018-07-17T21:30:39.695Z,22.30
2018-07-17T21:33:09.500Z,22.20
2018-07-17T21:35:39.610Z,22.12
2018-07-17T21:38:09.334Z,22.03
2018-07-17T21:40:39.393Z,21.99
2018-07-17T21:43:09.098Z,21.86
2018-07-17T21:45:38.966Z,21.98
2018-07-17T21:48:08.682Z,21.97
2018-07-17T21:50:38.633Z,21.85
2018-07-17T21:53:08.501Z,21.77
2018-07-17T21:55:38.396Z,21.68
2018-07-17T21:58:08.335Z,21.65
2018-07-17T22:00:38.115Z,21.63
2018-07-17T22:03:07.888Z,21.54
2018-07-17T22:05:37.673Z,21.50
2018-07-17T22:08:07.154Z,21.50
2018-07-17T22:10:36.804Z,21.45
2018-07-17T22:13:06.680Z,21.32
2018-07-17T22:15:36.313Z,21.28
2018-07-17T22:18:06.129Z,21.29
2018-07-17T22:20:35.686Z,21.21
2018-07-17T22:23:05.629Z,21.19
2018-07-17T22:25:35.392Z,21.06
2018-07-17T22:28:05.354Z,21.06
2018-07-17T22:30:35.062Z,21.07
2018-07-17T22:33:04.789Z,20.94
2018-07-17T22:35:34.453Z,20.88
2018-07-17T22:38:04.326Z,20.87
2018-07-17T22:40:35.115Z,20.81
2018-07-17T22:43:04.729Z,20.74
2018-07-17T22:45:34.394Z,20.66
2018-07-17T22:48:04.141Z,20.56
2018-07-17T22:50:33.810Z,20.47
2018-07-17T22:53:03.514Z,20.47
2018-07-17T22:55:33.250Z,20.40
2018-07-17T22:58:02.846Z,20.31
2018-07-17T23:00:32.563Z,20.24
2018-07-17T23:03:02.292Z,20.08
2018-07-17T23:05:31.953Z,20.17
2018-07-17T23:08:01.630Z,19.97
2018-07-17T23:10:31.421Z,19.94
2018-07-17T23:13:01.848Z,19.91
2018-07-17T23:15:31.222Z,19.93
2018-07-17T23:18:01.075Z,19.92
2018-07-17T23:20:32.027Z,20.01
2018-07-17T23:23:01.689Z,20.08
2018-07-17T23:25:32.650Z,20.13
2018-07-17T23:28:02.597Z,19.90
2018-07-17T23:30:32.240Z,19.91
2018-07-17T23:33:01.896Z,19.84
2018-07-17T23:35:31.315Z,19.79
2018-07-17T23:38:01.657Z,19.78
2018-07-17T23:40:31.289Z,19.82
2018-07-17T23:43:00.996Z,19.71
2018-07-17T23:45:30.575Z,19.73
2018-07-17T23:48:00.324Z,19.79
2018-07-17T23:50:29.989Z,19.80
2018-07-17T23:52:59.850Z,20.04
2018-07-17T23:55:29.464Z,19.89
2018-07-17T23:57:59.844Z,19.59
